BVX141A EGCC-ESGG
Flight info
| Callsign | BVX141A |
|---|---|
| Flight time | 1h 27m |
| Altitude | 32998 |
| Route | POL P17 NUKPE/N0417F250 P17 MEJAC/N0451F330 DCT ITSUX DCT TINAC T138 AAL N607 MAKUR |
| Aircraft | B739/M-SDE2E3FGHIRWXY/LB1 |
Departure
| Time | 2026-05-04 21:29 |
|---|---|
| Airport | Manchester Airport (EGCC) |
Arrival
| Time | 2026-05-04 22:56 |
|---|---|
| Airport | Göteborg Landvetter Airport (ESGG) |
| Time | Latitude | Longitude | Altitude | Speed | Heading |
|---|---|---|---|---|---|
| 2026-05-04 21:03 | 53.35911 | -2.27131 | 254 ft | 0 kts | 64° |
| 2026-05-04 21:16 | 53.35908 | -2.27141 | 254 ft | 4 kts | 65° |
| 2026-05-04 21:16 | 53.35899 | -2.27174 | 254 ft | 3 kts | 65° |
| 2026-05-04 21:16 | 53.35894 | -2.27212 | 254 ft | 4 kts | 119° |
| 2026-05-04 21:17 | 53.35911 | -2.27230 | 254 ft | 4 kts | 172° |
| 2026-05-04 21:17 | 53.35933 | -2.27236 | 254 ft | 1 kts | 172° |
| 2026-05-04 21:20 | 53.35913 | -2.27231 | 254 ft | 6 kts | 172° |
| 2026-05-04 21:21 | 53.35872 | -2.27221 | 254 ft | 6 kts | 173° |
| 2026-05-04 21:21 | 53.35833 | -2.27202 | 254 ft | 6 kts | 149° |
| 2026-05-04 21:21 | 53.35804 | -2.27153 | 254 ft | 6 kts | 121° |
| 2026-05-04 21:21 | 53.35805 | -2.27076 | 254 ft | 8 kts | 67° |
| 2026-05-04 21:22 | 53.35837 | -2.26980 | 255 ft | 11 kts | 60° |
| 2026-05-04 21:22 | 53.35884 | -2.26873 | 255 ft | 12 kts | 51° |
| 2026-05-04 21:22 | 53.35932 | -2.26755 | 255 ft | 13 kts | 56° |
| 2026-05-04 21:22 | 53.35986 | -2.26640 | 255 ft | 13 kts | 51° |
| 2026-05-04 21:23 | 53.36042 | -2.26524 | 255 ft | 13 kts | 51° |
| 2026-05-04 21:23 | 53.36100 | -2.26404 | 255 ft | 13 kts | 51° |
| 2026-05-04 21:23 | 53.36158 | -2.26285 | 254 ft | 13 kts | 46° |
| 2026-05-04 21:23 | 53.36227 | -2.26185 | 254 ft | 13 kts | 50° |
| 2026-05-04 21:24 | 53.36271 | -2.26060 | 254 ft | 8 kts | 88° |
| 2026-05-04 21:24 | 53.36270 | -2.26038 | 254 ft | 0 kts | 97° |
| 2026-05-04 21:25 | 53.36269 | -2.26035 | 254 ft | 2 kts | 97° |
| 2026-05-04 21:25 | 53.36274 | -2.25965 | 254 ft | 10 kts | 70° |
| 2026-05-04 21:25 | 53.36287 | -2.25841 | 255 ft | 11 kts | 101° |
| 2026-05-04 21:26 | 53.36239 | -2.25752 | 260 ft | 11 kts | 161° |
| 2026-05-04 21:26 | 53.36196 | -2.25792 | 258 ft | 5 kts | 238° |
| 2026-05-04 21:26 | 53.36186 | -2.25817 | 258 ft | 0 kts | 232° |
| 2026-05-04 21:28 | 53.36147 | -2.25899 | 258 ft | 36 kts | 231° |
| 2026-05-04 21:28 | 53.35840 | -2.26534 | 269 ft | 100 kts | 231° |
| 2026-05-04 21:29 | 53.35277 | -2.27698 | 238 ft | 154 kts | 231° |
| 2026-05-04 21:29 | 53.34547 | -2.29213 | 511 ft | 173 kts | 233° |
| 2026-05-04 21:29 | 53.33765 | -2.30839 | 1000 ft | 187 kts | 233° |
| 2026-05-04 21:29 | 53.32945 | -2.32546 | 1623 ft | 191 kts | 234° |
| 2026-05-04 21:30 | 53.32240 | -2.34444 | 2064 ft | 201 kts | 254° |
| 2026-05-04 21:30 | 53.32126 | -2.36836 | 2249 ft | 217 kts | 282° |
| 2026-05-04 21:30 | 53.32747 | -2.39178 | 2567 ft | 227 kts | 310° |
| 2026-05-04 21:30 | 53.34071 | -2.40767 | 2837 ft | 247 kts | 340° |
| 2026-05-04 21:31 | 53.37464 | -2.42438 | 4131 ft | 258 kts | 342° |
| 2026-05-04 21:31 | 53.39190 | -2.43335 | 4795 ft | 261 kts | 341° |
| 2026-05-04 21:31 | 53.40935 | -2.44258 | 4975 ft | 263 kts | 341° |
| 2026-05-04 21:32 | 53.42698 | -2.45203 | 5357 ft | 268 kts | 341° |
| 2026-05-04 21:32 | 53.44465 | -2.46156 | 6169 ft | 266 kts | 341° |
| 2026-05-04 21:32 | 53.46295 | -2.46571 | 6860 ft | 271 kts | 7° |
| 2026-05-04 21:32 | 53.48061 | -2.45436 | 7494 ft | 277 kts | 32° |
| 2026-05-04 21:33 | 53.49609 | -2.43456 | 8154 ft | 282 kts | 37° |
| 2026-05-04 21:33 | 53.51147 | -2.41367 | 8781 ft | 286 kts | 37° |
| 2026-05-04 21:33 | 53.52709 | -2.39260 | 9441 ft | 290 kts | 37° |
| 2026-05-04 21:33 | 53.54172 | -2.37296 | 10033 ft | 293 kts | 37° |
| 2026-05-04 21:34 | 53.55772 | -2.35161 | 10626 ft | 296 kts | 37° |
| 2026-05-04 21:34 | 53.57399 | -2.32998 | 11239 ft | 299 kts | 37° |
| 2026-05-04 21:34 | 53.59042 | -2.30815 | 11866 ft | 303 kts | 37° |
| 2026-05-04 21:34 | 53.60706 | -2.28602 | 12495 ft | 306 kts | 37° |
| 2026-05-04 21:35 | 53.62385 | -2.26368 | 13146 ft | 310 kts | 37° |
| 2026-05-04 21:35 | 53.64088 | -2.24098 | 13812 ft | 313 kts | 37° |
| 2026-05-04 21:35 | 53.65806 | -2.21806 | 14418 ft | 317 kts | 37° |
| 2026-05-04 21:35 | 53.67536 | -2.19495 | 15042 ft | 319 kts | 37° |
| 2026-05-04 21:36 | 53.69286 | -2.17156 | 15675 ft | 322 kts | 37° |
| 2026-05-04 21:36 | 53.71055 | -2.14789 | 16301 ft | 325 kts | 37° |
| 2026-05-04 21:36 | 53.72835 | -2.12405 | 16932 ft | 328 kts | 37° |
| 2026-05-04 21:36 | 53.74706 | -2.10184 | 17524 ft | 331 kts | 23° |
| 2026-05-04 21:37 | 53.76891 | -2.08998 | 18141 ft | 331 kts | 13° |
| 2026-05-04 21:37 | 53.79133 | -2.08027 | 18698 ft | 335 kts | 13° |
| 2026-05-04 21:37 | 53.81401 | -2.07054 | 19253 ft | 337 kts | 13° |
| 2026-05-04 21:37 | 53.83678 | -2.06061 | 19837 ft | 338 kts | 13° |
| 2026-05-04 21:38 | 53.85961 | -2.05049 | 20417 ft | 340 kts | 14° |
| 2026-05-04 21:38 | 53.88282 | -2.04008 | 20688 ft | 353 kts | 14° |
| 2026-05-04 21:38 | 53.90713 | -2.02909 | 20816 ft | 369 kts | 14° |
| 2026-05-04 21:38 | 53.93247 | -2.01756 | 20933 ft | 385 kts | 14° |
| 2026-05-04 21:39 | 53.95888 | -2.00552 | 21042 ft | 400 kts | 14° |
| 2026-05-04 21:39 | 53.98617 | -1.99305 | 21139 ft | 414 kts | 14° |
| 2026-05-04 21:39 | 54.01430 | -1.98019 | 21380 ft | 423 kts | 14° |
| 2026-05-04 21:39 | 54.04280 | -1.96711 | 21869 ft | 425 kts | 14° |
| 2026-05-04 21:40 | 54.07136 | -1.95394 | 22447 ft | 425 kts | 14° |
| 2026-05-04 21:40 | 54.09995 | -1.94083 | 22958 ft | 427 kts | 14° |
| 2026-05-04 21:40 | 54.12882 | -1.92778 | 23362 ft | 431 kts | 14° |
| 2026-05-04 21:40 | 54.15793 | -1.91464 | 23772 ft | 434 kts | 14° |
| 2026-05-04 21:41 | 54.18714 | -1.90138 | 24187 ft | 435 kts | 14° |
| 2026-05-04 21:41 | 54.21638 | -1.88776 | 24614 ft | 436 kts | 15° |
| 2026-05-04 21:41 | 54.24574 | -1.87393 | 25026 ft | 438 kts | 14° |
| 2026-05-04 21:41 | 54.27519 | -1.86008 | 25408 ft | 440 kts | 14° |
| 2026-05-04 21:42 | 54.30465 | -1.84523 | 25759 ft | 443 kts | 20° |
| 2026-05-04 21:42 | 54.33186 | -1.81999 | 26074 ft | 449 kts | 36° |
| 2026-05-04 21:42 | 54.35457 | -1.78322 | 26441 ft | 452 kts | 50° |
| 2026-05-04 21:42 | 54.37204 | -1.73827 | 26818 ft | 455 kts | 58° |
| 2026-05-04 21:43 | 54.38828 | -1.69166 | 27158 ft | 457 kts | 58° |
| 2026-05-04 21:43 | 54.40453 | -1.64453 | 27478 ft | 460 kts | 58° |
| 2026-05-04 21:43 | 54.42089 | -1.59717 | 27809 ft | 462 kts | 58° |
| 2026-05-04 21:43 | 54.43740 | -1.54963 | 28165 ft | 464 kts | 58° |
| 2026-05-04 21:44 | 54.45402 | -1.50210 | 28509 ft | 465 kts | 58° |
| 2026-05-04 21:44 | 54.47076 | -1.45439 | 28886 ft | 466 kts | 58° |
| 2026-05-04 21:44 | 54.48752 | -1.40673 | 29377 ft | 464 kts | 58° |
| 2026-05-04 21:44 | 54.50419 | -1.35928 | 29807 ft | 465 kts | 58° |
| 2026-05-04 21:45 | 54.52098 | -1.31147 | 30057 ft | 468 kts | 58° |
| 2026-05-04 21:45 | 54.53781 | -1.26347 | 30397 ft | 468 kts | 58° |
| 2026-05-04 21:45 | 54.55456 | -1.21556 | 30831 ft | 465 kts | 58° |
| 2026-05-04 21:45 | 54.57116 | -1.16796 | 31263 ft | 463 kts | 58° |
| 2026-05-04 21:46 | 54.58773 | -1.12037 | 31613 ft | 462 kts | 57° |
| 2026-05-04 21:46 | 54.60423 | -1.07288 | 31927 ft | 463 kts | 58° |
| 2026-05-04 21:46 | 54.62082 | -1.02503 | 32245 ft | 462 kts | 58° |
| 2026-05-04 21:46 | 54.63725 | -0.97756 | 32581 ft | 462 kts | 58° |
| 2026-05-04 21:47 | 54.65369 | -0.92996 | 32914 ft | 461 kts | 57° |
| 2026-05-04 21:47 | 54.67011 | -0.88235 | 33026 ft | 463 kts | 58° |
| 2026-05-04 21:47 | 54.68659 | -0.83446 | 33031 ft | 463 kts | 58° |
| 2026-05-04 21:48 | 54.71930 | -0.73908 | 33024 ft | 460 kts | 58° |
| 2026-05-04 21:48 | 54.75175 | -0.64411 | 33037 ft | 457 kts | 57° |
| 2026-05-04 21:49 | 54.78430 | -0.54852 | 33043 ft | 465 kts | 57° |
| 2026-05-04 21:49 | 54.81727 | -0.45131 | 33028 ft | 469 kts | 58° |
| 2026-05-04 21:50 | 54.85023 | -0.35368 | 33026 ft | 469 kts | 58° |
| 2026-05-04 21:50 | 54.88311 | -0.25590 | 33024 ft | 468 kts | 58° |
| 2026-05-04 21:51 | 54.91587 | -0.15809 | 33024 ft | 468 kts | 58° |
| 2026-05-04 21:51 | 54.94850 | -0.06029 | 33023 ft | 467 kts | 58° |
| 2026-05-04 21:52 | 54.98101 | 0.03754 | 33027 ft | 467 kts | 58° |
| 2026-05-04 21:52 | 55.01342 | 0.13547 | 33036 ft | 466 kts | 58° |
| 2026-05-04 21:53 | 55.04578 | 0.23363 | 33034 ft | 467 kts | 58° |
| 2026-05-04 21:53 | 55.07811 | 0.33210 | 33034 ft | 468 kts | 58° |
| 2026-05-04 21:54 | 55.11044 | 0.43099 | 33030 ft | 470 kts | 58° |
| 2026-05-04 21:54 | 55.14258 | 0.52971 | 33034 ft | 471 kts | 58° |
| 2026-05-04 21:55 | 55.17493 | 0.62947 | 33033 ft | 472 kts | 58° |
| 2026-05-04 21:55 | 55.20727 | 0.72960 | 33032 ft | 472 kts | 58° |
| 2026-05-04 21:56 | 55.23952 | 0.82991 | 33032 ft | 473 kts | 58° |
| 2026-05-04 21:56 | 55.27171 | 0.93042 | 33047 ft | 473 kts | 58° |
| 2026-05-04 21:57 | 55.30388 | 1.03130 | 33038 ft | 474 kts | 58° |
| 2026-05-04 21:57 | 55.33603 | 1.13252 | 33038 ft | 475 kts | 59° |
| 2026-05-04 21:58 | 55.36272 | 1.21689 | 33035 ft | 476 kts | 59° |
| 2026-05-04 21:58 | 55.39479 | 1.31867 | 33032 ft | 476 kts | 59° |
| 2026-05-04 21:59 | 55.42683 | 1.42081 | 33033 ft | 477 kts | 59° |
| 2026-05-04 21:59 | 55.45902 | 1.52385 | 33034 ft | 477 kts | 59° |
| 2026-05-04 22:00 | 55.49093 | 1.62641 | 33033 ft | 477 kts | 59° |
| 2026-05-04 22:00 | 55.52271 | 1.72902 | 33050 ft | 477 kts | 59° |
| 2026-05-04 22:01 | 55.55447 | 1.83199 | 33047 ft | 478 kts | 59° |
| 2026-05-04 22:01 | 55.58598 | 1.93463 | 33031 ft | 479 kts | 59° |
| 2026-05-04 22:02 | 55.61769 | 2.03832 | 33032 ft | 479 kts | 59° |
| 2026-05-04 22:02 | 55.64932 | 2.14226 | 33046 ft | 480 kts | 59° |
| 2026-05-04 22:03 | 55.68091 | 2.24648 | 33037 ft | 480 kts | 59° |
| 2026-05-04 22:03 | 55.71242 | 2.35092 | 33027 ft | 481 kts | 60° |
| 2026-05-04 22:04 | 55.74386 | 2.45561 | 33028 ft | 481 kts | 60° |
| 2026-05-04 22:04 | 55.77520 | 2.56038 | 33041 ft | 482 kts | 60° |
| 2026-05-04 22:05 | 55.80656 | 2.66571 | 33041 ft | 483 kts | 60° |
| 2026-05-04 22:05 | 55.83793 | 2.77156 | 33039 ft | 484 kts | 60° |
| 2026-05-04 22:06 | 55.86927 | 2.87776 | 33037 ft | 485 kts | 60° |
| 2026-05-04 22:06 | 55.90057 | 2.98435 | 33033 ft | 486 kts | 60° |
| 2026-05-04 22:07 | 55.93186 | 3.09136 | 33033 ft | 486 kts | 60° |
| 2026-05-04 22:07 | 55.96303 | 3.19850 | 33023 ft | 486 kts | 60° |
| 2026-05-04 22:08 | 55.99409 | 3.30572 | 33022 ft | 486 kts | 60° |
| 2026-05-04 22:08 | 56.02505 | 3.41302 | 33017 ft | 485 kts | 61° |
| 2026-05-04 22:09 | 56.05389 | 3.52204 | 33007 ft | 486 kts | 71° |
| 2026-05-04 22:09 | 56.07079 | 3.63913 | 33014 ft | 486 kts | 76° |
| 2026-05-04 22:10 | 56.08624 | 3.75686 | 33019 ft | 485 kts | 76° |
| 2026-05-04 22:10 | 56.10201 | 3.87427 | 33027 ft | 485 kts | 75° |
| 2026-05-04 22:11 | 56.11803 | 3.99163 | 33020 ft | 484 kts | 75° |
| 2026-05-04 22:11 | 56.13400 | 4.10888 | 33019 ft | 484 kts | 75° |
| 2026-05-04 22:12 | 56.14982 | 4.22611 | 33021 ft | 484 kts | 76° |
| 2026-05-04 22:12 | 56.16550 | 4.34342 | 33022 ft | 484 kts | 76° |
| 2026-05-04 22:13 | 56.18109 | 4.46095 | 33022 ft | 484 kts | 76° |
| 2026-05-04 22:13 | 56.19637 | 4.57710 | 33018 ft | 484 kts | 76° |
| 2026-05-04 22:14 | 56.21174 | 4.69480 | 33022 ft | 484 kts | 76° |
| 2026-05-04 22:14 | 56.22700 | 4.81268 | 33024 ft | 485 kts | 76° |
| 2026-05-04 22:15 | 56.24221 | 4.93096 | 33025 ft | 487 kts | 76° |
| 2026-05-04 22:15 | 56.25901 | 5.04908 | 33017 ft | 488 kts | 71° |
| 2026-05-04 22:16 | 56.28136 | 5.16443 | 33020 ft | 489 kts | 69° |
| 2026-05-04 22:16 | 56.30460 | 5.27958 | 33008 ft | 490 kts | 69° |
| 2026-05-04 22:17 | 56.32734 | 5.39547 | 33009 ft | 491 kts | 70° |
| 2026-05-04 22:17 | 56.34959 | 5.51180 | 33006 ft | 491 kts | 70° |
| 2026-05-04 22:18 | 56.37162 | 5.62838 | 33005 ft | 491 kts | 70° |
| 2026-05-04 22:18 | 56.39352 | 5.74495 | 33009 ft | 490 kts | 70° |
| 2026-05-04 22:19 | 56.41526 | 5.86128 | 33003 ft | 488 kts | 70° |
| 2026-05-04 22:19 | 56.43681 | 5.97724 | 33025 ft | 486 kts | 70° |
| 2026-05-04 22:20 | 56.45811 | 6.09253 | 33013 ft | 487 kts | 70° |
| 2026-05-04 22:20 | 56.47947 | 6.20884 | 33007 ft | 488 kts | 71° |
| 2026-05-04 22:21 | 56.50077 | 6.32561 | 33003 ft | 489 kts | 71° |
| 2026-05-04 22:21 | 56.52218 | 6.44367 | 33007 ft | 491 kts | 71° |
| 2026-05-04 22:22 | 56.54321 | 6.56044 | 32997 ft | 491 kts | 71° |
| 2026-05-04 22:22 | 56.56447 | 6.67917 | 32994 ft | 492 kts | 71° |
| 2026-05-04 22:23 | 56.58534 | 6.79653 | 32987 ft | 492 kts | 71° |
| 2026-05-04 22:23 | 56.60620 | 6.91459 | 32988 ft | 491 kts | 71° |
| 2026-05-04 22:24 | 56.62692 | 7.03260 | 32989 ft | 490 kts | 71° |
| 2026-05-04 22:24 | 56.64751 | 7.15060 | 32995 ft | 490 kts | 71° |
| 2026-05-04 22:25 | 56.66798 | 7.26875 | 33001 ft | 490 kts | 71° |
| 2026-05-04 22:25 | 56.68838 | 7.38724 | 32986 ft | 491 kts | 72° |
| 2026-05-04 22:26 | 56.70872 | 7.50612 | 32981 ft | 492 kts | 72° |
| 2026-05-04 22:26 | 56.72896 | 7.62526 | 32978 ft | 493 kts | 72° |
| 2026-05-04 22:27 | 56.74911 | 7.74465 | 32976 ft | 493 kts | 72° |
| 2026-05-04 22:27 | 56.76915 | 7.86423 | 32975 ft | 493 kts | 72° |
| 2026-05-04 22:28 | 56.78906 | 7.98381 | 32977 ft | 493 kts | 72° |
| 2026-05-04 22:28 | 56.80885 | 8.10350 | 32971 ft | 492 kts | 72° |
| 2026-05-04 22:29 | 56.82850 | 8.22312 | 32970 ft | 492 kts | 72° |
| 2026-05-04 22:29 | 56.84802 | 8.34281 | 32967 ft | 493 kts | 72° |
| 2026-05-04 22:30 | 56.86749 | 8.46302 | 32966 ft | 494 kts | 72° |
| 2026-05-04 22:30 | 56.88689 | 8.58364 | 32981 ft | 495 kts | 72° |
| 2026-05-04 22:31 | 56.90622 | 8.70466 | 32969 ft | 496 kts | 73° |
| 2026-05-04 22:31 | 56.92549 | 8.82616 | 32960 ft | 497 kts | 73° |
| 2026-05-04 22:32 | 56.94464 | 8.94783 | 32971 ft | 497 kts | 73° |
| 2026-05-04 22:32 | 56.96369 | 9.06970 | 32953 ft | 497 kts | 73° |
| 2026-05-04 22:33 | 56.98260 | 9.19151 | 32945 ft | 496 kts | 73° |
| 2026-05-04 22:33 | 57.00135 | 9.31323 | 32956 ft | 496 kts | 73° |
| 2026-05-04 22:34 | 57.01998 | 9.43504 | 32942 ft | 495 kts | 73° |
| 2026-05-04 22:34 | 57.03846 | 9.55678 | 32947 ft | 495 kts | 73° |
| 2026-05-04 22:35 | 57.05684 | 9.67877 | 32948 ft | 496 kts | 73° |
| 2026-05-04 22:35 | 57.06610 | 9.74056 | 32283 ft | 507 kts | 73° |
| 2026-05-04 22:35 | 57.07542 | 9.80299 | 31562 ft | 507 kts | 74° |
| 2026-05-04 22:35 | 57.08472 | 9.86548 | 30792 ft | 507 kts | 74° |
| 2026-05-04 22:36 | 57.09393 | 9.92763 | 30250 ft | 501 kts | 74° |
| 2026-05-04 22:36 | 57.10315 | 9.98925 | 29616 ft | 497 kts | 72° |
| 2026-05-04 22:36 | 57.11473 | 10.04858 | 29024 ft | 490 kts | 66° |
| 2026-05-04 22:36 | 57.12803 | 10.10500 | 28456 ft | 484 kts | 64° |
| 2026-05-04 22:37 | 57.14186 | 10.16113 | 27903 ft | 479 kts | 63° |
| 2026-05-04 22:37 | 57.15561 | 10.21671 | 27324 ft | 475 kts | 63° |
| 2026-05-04 22:37 | 57.16909 | 10.27194 | 26757 ft | 471 kts | 64° |
| 2026-05-04 22:37 | 57.18227 | 10.32691 | 26194 ft | 467 kts | 64° |
| 2026-05-04 22:38 | 57.19520 | 10.38157 | 25648 ft | 463 kts | 64° |
| 2026-05-04 22:38 | 57.20795 | 10.43594 | 25107 ft | 460 kts | 64° |
| 2026-05-04 22:38 | 57.22054 | 10.48999 | 24596 ft | 457 kts | 64° |
| 2026-05-04 22:38 | 57.23307 | 10.54386 | 24011 ft | 457 kts | 64° |
| 2026-05-04 22:39 | 57.24554 | 10.59762 | 23454 ft | 455 kts | 64° |
| 2026-05-04 22:39 | 57.25376 | 10.63311 | 23023 ft | 454 kts | 64° |
| 2026-05-04 22:39 | 57.26610 | 10.68646 | 22443 ft | 450 kts | 64° |
| 2026-05-04 22:39 | 57.27833 | 10.73949 | 21882 ft | 446 kts | 64° |
| 2026-05-04 22:40 | 57.29042 | 10.79205 | 21325 ft | 443 kts | 64° |
| 2026-05-04 22:40 | 57.30241 | 10.84423 | 20798 ft | 439 kts | 65° |
| 2026-05-04 22:40 | 57.31427 | 10.89599 | 20282 ft | 435 kts | 65° |
| 2026-05-04 22:40 | 57.32603 | 10.94742 | 19759 ft | 432 kts | 65° |
| 2026-05-04 22:41 | 57.33767 | 10.99848 | 19248 ft | 429 kts | 65° |
| 2026-05-04 22:41 | 57.34924 | 11.04929 | 18751 ft | 426 kts | 65° |
| 2026-05-04 22:41 | 57.36070 | 11.09970 | 18266 ft | 423 kts | 65° |
| 2026-05-04 22:41 | 57.37206 | 11.14980 | 17665 ft | 421 kts | 65° |
| 2026-05-04 22:42 | 57.38337 | 11.19976 | 17125 ft | 418 kts | 65° |
| 2026-05-04 22:42 | 57.39457 | 11.24936 | 16600 ft | 415 kts | 65° |
| 2026-05-04 22:42 | 57.40567 | 11.29857 | 16087 ft | 413 kts | 65° |
| 2026-05-04 22:42 | 57.41670 | 11.34758 | 15607 ft | 410 kts | 65° |
| 2026-05-04 22:43 | 57.42762 | 11.39629 | 15059 ft | 409 kts | 65° |
| 2026-05-04 22:43 | 57.43848 | 11.44492 | 14516 ft | 408 kts | 66° |
| 2026-05-04 22:43 | 57.44929 | 11.49356 | 14003 ft | 407 kts | 66° |
| 2026-05-04 22:43 | 57.46003 | 11.54210 | 13432 ft | 406 kts | 66° |
| 2026-05-04 22:44 | 57.47071 | 11.59043 | 12923 ft | 403 kts | 66° |
| 2026-05-04 22:44 | 57.48130 | 11.63847 | 12405 ft | 400 kts | 66° |
| 2026-05-04 22:44 | 57.49176 | 11.68600 | 11899 ft | 397 kts | 66° |
| 2026-05-04 22:44 | 57.50214 | 11.73330 | 11394 ft | 393 kts | 66° |
| 2026-05-04 22:45 | 57.51238 | 11.78003 | 10890 ft | 384 kts | 66° |
| 2026-05-04 22:45 | 57.53165 | 11.86826 | 10385 ft | 350 kts | 66° |
| 2026-05-04 22:45 | 57.54054 | 11.90915 | 10215 ft | 333 kts | 66° |
| 2026-05-04 22:46 | 57.54915 | 11.94819 | 10071 ft | 318 kts | 62° |
| 2026-05-04 22:46 | 57.56191 | 11.98014 | 9935 ft | 301 kts | 36° |
| 2026-05-04 22:46 | 57.57863 | 12.00170 | 9772 ft | 288 kts | 23° |
| 2026-05-04 22:46 | 57.59636 | 12.01874 | 9436 ft | 286 kts | 20° |
| 2026-05-04 22:47 | 57.61415 | 12.03526 | 9125 ft | 285 kts | 21° |
| 2026-05-04 22:47 | 57.63179 | 12.05205 | 8844 ft | 284 kts | 21° |
| 2026-05-04 22:47 | 57.64936 | 12.06905 | 8520 ft | 284 kts | 21° |
| 2026-05-04 22:47 | 57.66688 | 12.08614 | 8188 ft | 284 kts | 21° |
| 2026-05-04 22:48 | 57.68432 | 12.10321 | 7877 ft | 283 kts | 21° |
| 2026-05-04 22:48 | 57.70172 | 12.12027 | 7559 ft | 282 kts | 21° |
| 2026-05-04 22:48 | 57.71908 | 12.13733 | 7236 ft | 281 kts | 22° |
| 2026-05-04 22:48 | 57.73634 | 12.15427 | 6941 ft | 280 kts | 22° |
| 2026-05-04 22:49 | 57.75356 | 12.17123 | 6615 ft | 280 kts | 21° |
| 2026-05-04 22:49 | 57.77076 | 12.18819 | 6314 ft | 279 kts | 22° |
| 2026-05-04 22:49 | 57.78792 | 12.20513 | 5980 ft | 279 kts | 22° |
| 2026-05-04 22:49 | 57.80506 | 12.22207 | 5652 ft | 278 kts | 22° |
| 2026-05-04 22:50 | 57.82213 | 12.23896 | 5346 ft | 277 kts | 21° |
| 2026-05-04 22:50 | 57.83889 | 12.25558 | 5127 ft | 266 kts | 21° |
| 2026-05-04 22:50 | 57.85456 | 12.27190 | 5024 ft | 254 kts | 30° |
| 2026-05-04 22:50 | 57.86563 | 12.29709 | 4819 ft | 252 kts | 64° |
| 2026-05-04 22:51 | 57.86947 | 12.32860 | 4595 ft | 243 kts | 82° |
| 2026-05-04 22:51 | 57.87046 | 12.35932 | 4473 ft | 233 kts | 90° |
| 2026-05-04 22:51 | 57.86629 | 12.38800 | 4356 ft | 225 kts | 128° |
| 2026-05-04 22:51 | 57.85489 | 12.40711 | 4151 ft | 219 kts | 160° |
| 2026-05-04 22:52 | 57.84097 | 12.41466 | 3923 ft | 201 kts | 183° |
| 2026-05-04 22:52 | 57.82728 | 12.41631 | 3668 ft | 194 kts | 185° |
| 2026-05-04 22:52 | 57.81421 | 12.41652 | 3518 ft | 179 kts | 200° |
| 2026-05-04 22:52 | 57.80329 | 12.40757 | 3406 ft | 172 kts | 216° |
| 2026-05-04 22:53 | 57.79238 | 12.39767 | 3166 ft | 174 kts | 213° |
| 2026-05-04 22:53 | 57.78162 | 12.38815 | 2915 ft | 168 kts | 216° |
| 2026-05-04 22:53 | 57.77138 | 12.37876 | 2689 ft | 159 kts | 216° |
| 2026-05-04 22:53 | 57.76184 | 12.37011 | 2513 ft | 145 kts | 216° |
| 2026-05-04 22:54 | 57.75305 | 12.36210 | 2308 ft | 138 kts | 217° |
| 2026-05-04 22:54 | 57.74442 | 12.35414 | 2099 ft | 137 kts | 216° |
| 2026-05-04 22:54 | 57.73595 | 12.34640 | 1902 ft | 135 kts | 216° |
| 2026-05-04 22:54 | 57.72741 | 12.33876 | 1779 ft | 144 kts | 215° |
| 2026-05-04 22:55 | 57.71821 | 12.33009 | 1524 ft | 145 kts | 213° |
| 2026-05-04 22:55 | 57.70932 | 12.32216 | 1313 ft | 140 kts | 212° |
| 2026-05-04 22:55 | 57.70056 | 12.31422 | 1110 ft | 140 kts | 211° |
| 2026-05-04 22:55 | 57.69171 | 12.30613 | 893 ft | 140 kts | 210° |
| 2026-05-04 22:56 | 57.68293 | 12.29825 | 731 ft | 139 kts | 210° |
| 2026-05-04 22:56 | 57.67416 | 12.29008 | 559 ft | 141 kts | 208° |
| 2026-05-04 22:56 | 57.66608 | 12.28269 | 523 ft | 107 kts | 205° |
| 2026-05-04 22:56 | 57.66140 | 12.27843 | 515 ft | 41 kts | 206° |
| 2026-05-04 22:57 | 57.65923 | 12.27681 | 514 ft | 30 kts | 191° |
| 2026-05-04 22:57 | 57.65791 | 12.27670 | 514 ft | 12 kts | 177° |
| 2026-05-04 22:57 | 57.65719 | 12.27740 | 513 ft | 12 kts | 112° |
| 2026-05-04 22:57 | 57.65761 | 12.27847 | 514 ft | 11 kts | 33° |
| 2026-05-04 22:58 | 57.65827 | 12.27912 | 515 ft | 11 kts | 26° |
| 2026-05-04 22:58 | 57.65892 | 12.27971 | 515 ft | 10 kts | 26° |
| 2026-05-04 22:58 | 57.65954 | 12.28028 | 516 ft | 10 kts | 26° |
| 2026-05-04 22:58 | 57.66015 | 12.28083 | 516 ft | 10 kts | 26° |
| 2026-05-04 22:59 | 57.66075 | 12.28139 | 517 ft | 9 kts | 25° |
| 2026-05-04 22:59 | 57.66133 | 12.28190 | 517 ft | 9 kts | 25° |
| 2026-05-04 22:59 | 57.66190 | 12.28241 | 518 ft | 9 kts | 26° |
| 2026-05-04 22:59 | 57.66245 | 12.28292 | 519 ft | 9 kts | 27° |
| 2026-05-04 23:00 | 57.66305 | 12.28348 | 519 ft | 12 kts | 26° |
| 2026-05-04 23:00 | 57.66392 | 12.28427 | 520 ft | 16 kts | 26° |
| 2026-05-04 23:00 | 57.66506 | 12.28530 | 521 ft | 20 kts | 26° |
| 2026-05-04 23:00 | 57.66626 | 12.28639 | 523 ft | 17 kts | 26° |
| 2026-05-04 23:01 | 57.66652 | 12.28802 | 523 ft | 14 kts | 114° |
| 2026-05-04 23:01 | 57.66616 | 12.28970 | 523 ft | 14 kts | 88° |
| 2026-05-04 23:01 | 57.66621 | 12.29053 | 524 ft | 6 kts | 76° |
| 2026-05-04 23:01 | 57.66617 | 12.29129 | 524 ft | 6 kts | 103° |
| 2026-05-04 23:02 | 57.66611 | 12.29151 | 524 ft | 2 kts | 117° |
| 2026-05-04 23:02 | 57.66609 | 12.29157 | 524 ft | 0 kts | 117° |
| 2026-05-04 23:02 | 57.66607 | 12.29162 | 524 ft | 2 kts | 117° |
| 2026-05-04 23:02 | 57.66607 | 12.29165 | 524 ft | 0 kts | 117° |